Time;durP1;ratioP1;P1;durP2;ratioP2;P2;SDS_P1;SDS_P2;PMS_P1;PMS_P2;Temp;Humidity;BMP_temperature;BMP_pressure;BME280_temperature;BME280_humidity;BME280_pressure;Samples;Min_cycle;Max_cycle;Signal;HPM_P1;HPM_P2
2023/01/14 00:01:32;;;;;;;37.43;30.10;;;;;;;6.46;63.84;95188.75;5011603;28;20226;-69
2023/01/14 00:03:58;;;;;;;41.53;30.70;;;;;;;6.42;64.20;95189.97;5012017;28;20195;-71
2023/01/14 00:06:27;;;;;;;42.77;32.03;;;;;;;6.53;63.95;95188.16;5001777;28;20202;-70
2023/01/14 00:09:00;;;;;;;43.07;34.17;;;;;;;6.55;63.85;95191.47;5003135;28;20259;-70
2023/01/14 00:14:43;;;;;;;46.73;34.27;;;;;;;6.51;64.24;95190.03;5002109;28;20234;-69
2023/01/14 00:17:09;;;;;;;45.47;35.03;;;;;;;6.53;64.03;95184.72;4957027;28;20232;-69
2023/01/14 00:19:34;;;;;;;47.00;34.17;;;;;;;6.60;64.18;95191.06;4952591;28;20410;-71
2023/01/14 00:21:59;;;;;;;42.60;32.37;;;;;;;6.63;64.02;95190.84;4936290;28;20220;-70
2023/01/14 00:24:25;;;;;;;43.60;30.73;;;;;;;6.56;64.38;95189.69;4969854;28;20235;-68
2023/01/14 00:26:53;;;;;;;42.03;31.60;;;;;;;6.56;63.89;95180.06;4973251;28;20223;-69
2023/01/14 00:29:22;;;;;;;39.17;29.53;;;;;;;6.63;63.93;95177.78;4975949;28;20287;-69
2023/01/14 00:31:47;;;;;;;36.73;28.20;;;;;;;6.45;64.14;95177.47;4974498;28;20236;-70
2023/01/14 00:34:14;;;;;;;35.07;28.03;;;;;;;6.54;63.78;95176.72;4955630;28;20212;-70
2023/01/14 00:36:41;;;;;;;37.20;27.57;;;;;;;6.54;63.84;95166.28;4965030;28;20283;-70
2023/01/14 00:39:07;;;;;;;34.23;27.87;;;;;;;6.47;64.22;95170.34;4973514;28;20310;-70
2023/01/14 00:41:32;;;;;;;32.60;27.03;;;;;;;6.45;64.07;95171.44;4960124;28;20230;-70
2023/01/14 00:43:59;;;;;;;32.23;26.00;;;;;;;6.48;64.19;95168.56;4973268;28;20241;-70
2023/01/14 00:46:32;;;;;;;37.17;28.53;;;;;;;6.42;64.12;95171.69;4950186;28;20224;-68
2023/01/14 00:48:59;;;;;;;31.57;25.67;;;;;;;6.38;64.52;95176.31;4940312;28;20695;-67
2023/01/14 00:51:26;;;;;;;31.73;25.17;;;;;;;6.40;64.37;95171.78;4956963;28;20232;-68
2023/01/14 00:53:51;;;;;;;34.53;26.50;;;;;;;6.17;65.08;95171.84;5010850;28;20218;-68
2023/01/14 00:56:20;;;;;;;27.63;23.73;;;;;;;6.37;64.50;95170.25;5010429;28;20230;-68
2023/01/14 00:58:46;;;;;;;28.13;24.20;;;;;;;6.41;64.28;95173.44;5016238;28;20234;-68
2023/01/14 01:01:12;;;;;;;31.13;23.70;;;;;;;6.36;64.56;95179.06;5004739;28;20191;-69
2023/01/14 01:03:40;;;;;;;31.13;24.63;;;;;;;6.37;64.34;95172.03;5003126;28;20210;-68
2023/01/14 01:06:05;;;;;;;30.73;25.00;;;;;;;6.37;64.55;95169.44;5002360;28;20220;-68
2023/01/14 01:08:32;;;;;;;32.60;25.03;;;;;;;6.44;64.38;95170.56;5008202;28;20251;-68
2023/01/14 01:10:58;;;;;;;33.03;26.23;;;;;;;6.51;64.10;95173.53;5010602;28;20230;-69
2023/01/14 01:13:23;;;;;;;31.73;25.93;;;;;;;6.42;64.26;95171.69;5010934;28;20222;-70
2023/01/14 01:15:51;;;;;;;31.27;24.83;;;;;;;6.41;64.29;95170.81;5016624;28;20193;-69
2023/01/14 01:18:16;;;;;;;29.93;24.03;;;;;;;6.49;64.16;95176.25;5011254;28;20218;-69
2023/01/14 01:20:44;;;;;;;30.57;24.13;;;;;;;6.40;64.28;95166.56;5001945;28;20238;-69
2023/01/14 01:23:14;;;;;;;27.27;23.33;;;;;;;6.38;64.49;95171.91;5017771;28;20229;-69
2023/01/14 01:25:40;;;;;;;33.50;25.13;;;;;;;6.33;64.50;95161.00;5011323;28;20227;-68
2023/01/14 01:28:06;;;;;;;29.83;23.80;;;;;;;6.30;64.63;95170.84;5001463;28;20211;-69
2023/01/14 01:30:32;;;;;;;31.83;24.43;;;;;;;6.31;65.05;95159.47;5013753;28;20266;-69
2023/01/14 01:32:57;;;;;;;30.83;23.07;;;;;;;6.40;64.59;95164.78;5020982;28;20306;-69
2023/01/14 01:35:24;;;;;;;27.53;21.17;;;;;;;6.47;64.38;95161.66;5012717;28;20218;-68
2023/01/14 01:37:50;;;;;;;30.60;24.10;;;;;;;6.45;64.34;95151.34;5012947;28;20226;-68
2023/01/14 01:40:17;;;;;;;29.43;23.40;;;;;;;6.46;63.87;95158.22;5006925;28;20317;-69
2023/01/14 01:42:54;;;;;;;29.90;24.13;;;;;;;6.37;64.22;95156.38;5011227;28;20250;-70
2023/01/14 01:45:43;;;;;;;30.77;21.83;;;;;;;6.38;64.13;95153.63;5011841;28;20222;-69
2023/01/14 01:48:49;;;;;;;25.20;21.37;;;;;;;6.31;64.13;95143.81;5023004;28;20220;-70
2023/01/14 01:51:21;;;;;;;25.87;21.90;;;;;;;6.25;64.13;95155.53;5007546;28;20301;-70
2023/01/14 01:53:50;;;;;;;24.57;21.37;;;;;;;6.22;64.14;95145.34;5015721;28;20298;-69
2023/01/14 01:56:19;;;;;;;28.23;22.63;;;;;;;6.13;64.35;95139.09;5011667;28;20223;-68
2023/01/14 01:58:46;;;;;;;28.57;22.57;;;;;;;6.15;64.47;95134.56;4999263;28;20227;-69
2023/01/14 02:01:13;;;;;;;27.93;20.37;;;;;;;6.22;64.18;95134.09;4991270;28;20238;-70
2023/01/14 02:03:42;;;;;;;26.90;22.23;;;;;;;6.20;63.90;95139.41;5012701;28;20255;-68
2023/01/14 02:06:08;;;;;;;24.07;21.47;;;;;;;6.09;63.95;95135.03;5021148;28;20254;-67
2023/01/14 02:08:36;;;;;;;25.60;21.30;;;;;;;6.08;64.31;95140.41;5009967;28;20245;-67
2023/01/14 02:11:26;;;;;;;28.97;21.77;;;;;;;5.88;64.56;95134.09;5014337;28;20226;-67
2023/01/14 02:13:52;;;;;;;26.13;21.33;;;;;;;6.01;65.03;95136.59;5032756;28;20231;-69
2023/01/14 02:16:33;;;;;;;26.43;22.67;;;;;;;6.00;64.73;95133.16;5011234;28;20234;-69
2023/01/14 02:18:59;;;;;;;28.53;23.10;;;;;;;6.05;64.58;95133.66;5009014;28;20211;-69
2023/01/14 02:21:36;;;;;;;27.07;22.23;;;;;;;6.06;64.93;95143.13;5011815;28;20253;-69
2023/01/14 02:24:23;;;;;;;27.33;22.40;;;;;;;5.85;65.03;95142.16;5009711;28;20223;-68
2023/01/14 02:27:19;;;;;;;27.90;23.70;;;;;;;5.77;65.90;95131.50;5000327;28;20215;-68
2023/01/14 02:29:50;;;;;;;27.40;22.83;;;;;;;5.90;65.36;95137.41;5003994;28;20219;-68
2023/01/14 02:32:18;;;;;;;27.23;21.37;;;;;;;5.39;67.15;95145.72;5023483;28;20237;-69
2023/01/14 02:35:19;;;;;;;27.73;22.63;;;;;;;5.61;66.75;95140.50;5018218;28;20235;-69
2023/01/14 02:38:14;;;;;;;29.63;23.30;;;;;;;5.86;65.56;95143.84;4956355;28;20231;-69
2023/01/14 02:40:56;;;;;;;28.43;23.07;;;;;;;5.82;65.81;95135.41;4970999;28;20243;-68
2023/01/14 02:46:53;;;;;;;28.50;23.80;;;;;;;5.74;65.62;95141.22;4970081;28;20268;-68
2023/01/14 02:49:26;;;;;;;29.50;23.37;;;;;;;5.63;65.91;95137.78;4953825;28;20233;-69
2023/01/14 02:51:51;;;;;;;28.70;21.87;;;;;;;5.70;65.62;95137.19;4933926;29;20197;-69
2023/01/14 02:54:17;;;;;;;27.70;23.60;;;;;;;5.85;65.38;95134.34;4971779;28;20250;-69
2023/01/14 02:56:45;;;;;;;28.43;23.13;;;;;;;5.89;65.13;95138.38;4952739;28;20247;-69
2023/01/14 02:59:29;;;;;;;30.63;24.27;;;;;;;5.63;65.70;95148.22;4954980;28;20276;-69
2023/01/14 03:02:16;;;;;;;28.07;22.27;;;;;;;5.59;65.90;95141.59;4938675;29;20256;-70
2023/01/14 03:04:57;;;;;;;27.03;22.90;;;;;;;5.59;66.16;95146.81;4958396;28;20256;-69
2023/01/14 03:08:13;;;;;;;27.87;22.47;;;;;;;5.50;66.11;95138.72;4958083;28;20356;-69
2023/01/14 03:10:51;;;;;;;27.53;22.97;;;;;;;5.53;65.72;95137.66;4919563;29;20256;-69
2023/01/14 03:13:24;;;;;;;29.60;24.00;;;;;;;5.48;65.89;95139.78;4944090;28;20223;-68
2023/01/14 03:15:59;;;;;;;27.90;23.50;;;;;;;5.67;65.47;95147.06;4977474;28;20226;-70
2023/01/14 03:18:27;;;;;;;28.33;22.87;;;;;;;5.60;65.50;95149.28;4974960;28;20625;-69
2023/01/14 03:21:02;;;;;;;26.07;22.03;;;;;;;5.62;65.56;95144.78;4974293;28;20231;-69
2023/01/14 03:23:30;;;;;;;28.50;22.47;;;;;;;5.81;64.62;95143.38;4994141;28;20288;-69
2023/01/14 03:25:58;;;;;;;26.73;21.93;;;;;;;5.55;65.46;95141.00;4994410;28;20227;-69
2023/01/14 03:28:30;;;;;;;27.73;23.23;;;;;;;5.72;64.76;95129.25;4995434;28;20314;-69
2023/01/14 03:31:02;;;;;;;27.37;22.53;;;;;;;5.82;64.53;95127.56;4976379;28;20433;-69
2023/01/14 03:33:36;;;;;;;27.63;22.33;;;;;;;5.86;64.22;95121.19;4991428;28;20192;-70
2023/01/14 03:36:03;;;;;;;27.77;22.07;;;;;;;5.88;64.56;95127.13;4991062;28;20231;-69
2023/01/14 03:38:54;;;;;;;28.97;22.33;;;;;;;5.95;64.18;95135.31;4996143;28;20260;-69
2023/01/14 03:44:23;;;;;;;26.23;22.37;;;;;;;5.92;64.00;95127.69;5016723;28;20232;-70
2023/01/14 03:46:49;;;;;;;25.50;22.13;;;;;;;5.95;64.36;95130.91;5005647;28;20289;-68
2023/01/14 03:49:15;;;;;;;25.50;21.97;;;;;;;5.98;64.23;95129.84;5020842;28;20195;-68
2023/01/14 03:51:49;;;;;;;27.20;22.27;;;;;;;6.00;64.32;95129.75;5021275;28;20202;-69
2023/01/14 03:54:22;;;;;;;25.17;22.00;;;;;;;6.00;64.23;95127.94;5021853;28;20227;-69
2023/01/14 03:57:02;;;;;;;26.53;22.60;;;;;;;6.03;64.43;95132.09;5023056;28;20218;-69
2023/01/14 04:00:08;;;;;;;25.53;21.97;;;;;;;6.06;64.19;95134.47;5006043;28;20230;-69
2023/01/14 04:02:35;;;;;;;27.67;21.90;;;;;;;5.99;64.02;95123.69;4949287;28;20242;-69
2023/01/14 04:05:01;;;;;;;25.10;21.83;;;;;;;6.00;64.28;95124.53;4970172;28;21352;-70
2023/01/14 04:07:27;;;;;;;25.17;22.50;;;;;;;5.96;64.40;95129.13;4941050;28;20231;-69
2023/01/14 04:09:52;;;;;;;28.03;22.33;;;;;;;6.00;63.96;95119.31;4956282;28;20248;-69
2023/01/14 04:12:18;;;;;;;28.13;22.93;;;;;;;6.04;63.55;95118.94;4958586;28;20380;-69
2023/01/14 04:17:27;;;;;;;26.70;22.43;;;;;;;5.98;63.72;95122.00;4973015;28;20246;-70
2023/01/14 04:19:53;;;;;;;25.83;21.77;;;;;;;5.96;63.92;95124.75;4955922;28;20318;-70
2023/01/14 04:22:18;;;;;;;25.17;22.07;;;;;;;6.06;63.60;95117.00;4954406;28;20236;-70
2023/01/14 04:24:44;;;;;;;24.70;21.23;;;;;;;6.06;63.28;95108.34;4962230;28;20246;-70
2023/01/14 04:27:09;;;;;;;26.20;22.20;;;;;;;6.10;63.38;95115.84;4951508;28;20259;-69
2023/01/14 04:29:35;;;;;;;24.03;21.43;;;;;;;6.01;63.26;95116.56;4973036;28;20227;-70
2023/01/14 04:32:00;;;;;;;23.90;21.13;;;;;;;6.09;62.96;95113.34;4967239;28;20271;-70
2023/01/14 04:34:26;;;;;;;26.47;22.37;;;;;;;6.14;62.92;95101.56;4969612;28;20223;-70
2023/01/14 04:36:51;;;;;;;24.70;21.37;;;;;;;6.11;63.15;95107.03;4954156;28;20961;-70
2023/01/14 04:39:17;;;;;;;27.00;21.47;;;;;;;6.07;63.16;95110.88;5018678;28;20253;-70
2023/01/14 04:44:26;;;;;;;27.40;21.53;;;;;;;5.99;63.77;95107.19;4996633;28;20226;-69
2023/01/14 04:46:51;;;;;;;25.47;21.57;;;;;;;6.01;63.62;95103.50;5014398;28;20234;-70
2023/01/14 04:49:17;;;;;;;28.17;22.67;;;;;;;6.02;63.53;95112.19;5012688;28;20289;-70
2023/01/14 04:51:42;;;;;;;26.03;21.17;;;;;;;6.03;63.83;95106.00;5009365;28;20194;-69
2023/01/14 04:54:08;;;;;;;24.30;21.67;;;;;;;6.05;63.91;95111.94;5008962;28;20273;-69
2023/01/14 04:56:33;;;;;;;25.57;21.60;;;;;;;5.99;63.89;95110.66;5013178;28;20222;-68
2023/01/14 04:59:01;;;;;;;25.90;21.40;;;;;;;6.01;64.24;95103.50;5019841;28;20244;-69
2023/01/14 05:01:28;;;;;;;27.30;22.03;;;;;;;6.00;63.88;95112.28;5014021;28;20302;-69
2023/01/14 05:03:58;;;;;;;27.97;22.10;;;;;;;5.97;64.43;95115.16;5015922;28;20194;-69
2023/01/14 05:06:24;;;;;;;28.60;20.90;;;;;;;6.02;64.44;95126.06;5002628;28;20233;-68
2023/01/14 05:08:50;;;;;;;27.50;20.13;;;;;;;5.94;64.69;95116.22;5001415;28;20226;-69
2023/01/14 05:11:15;;;;;;;24.80;19.63;;;;;;;6.05;64.74;95117.16;5019886;28;20234;-69
2023/01/14 05:13:41;;;;;;;25.83;21.07;;;;;;;6.09;64.33;95114.16;5010533;28;20306;-69
2023/01/14 05:16:06;;;;;;;28.17;20.37;;;;;;;6.07;64.36;95120.47;5017775;28;20207;-69
2023/01/14 05:18:32;;;;;;;23.20;19.87;;;;;;;6.10;64.64;95117.63;5009339;28;20218;-69
2023/01/14 05:20:57;;;;;;;27.60;21.67;;;;;;;6.10;64.11;95125.47;5009860;28;20230;-69
2023/01/14 05:23:22;;;;;;;25.67;21.17;;;;;;;6.08;64.36;95112.50;5009806;28;20588;-68
2023/01/14 05:25:50;;;;;;;25.30;20.33;;;;;;;6.05;64.38;95122.38;5008644;28;20215;-69
2023/01/14 05:28:17;;;;;;;25.23;21.60;;;;;;;6.13;64.10;95112.16;5016650;28;20202;-69
2023/01/14 05:30:43;;;;;;;25.47;20.13;;;;;;;6.15;64.08;95123.31;5009284;28;20194;-69
2023/01/14 05:33:09;;;;;;;25.17;21.03;;;;;;;5.78;64.91;95126.16;5009346;28;20228;-69
2023/01/14 05:35:34;;;;;;;24.17;20.13;;;;;;;5.91;64.87;95126.06;4995210;28;20219;-69
2023/01/14 05:38:00;;;;;;;24.90;20.53;;;;;;;6.03;64.40;95124.28;4998417;28;20223;-69
2023/01/14 05:40:25;;;;;;;28.30;22.20;;;;;;;6.06;64.27;95129.25;4991253;28;20447;-69
2023/01/14 05:45:49;;;;;;;25.30;21.40;;;;;;;6.03;64.59;95124.28;5009016;28;20298;-68
2023/01/14 05:48:20;;;;;;;25.13;20.53;;;;;;;5.99;64.66;95126.31;5023889;28;20227;-69
2023/01/14 05:50:50;;;;;;;23.13;18.00;;;;;;;6.05;63.98;95133.66;4998680;28;20223;-68
2023/01/14 05:53:16;;;;;;;18.40;16.10;;;;;;;6.04;63.34;95132.00;5008940;28;20315;-69
2023/01/14 05:55:41;;;;;;;15.37;13.57;;;;;;;6.04;62.89;95134.59;5020364;28;20227;-71
2023/01/14 05:58:07;;;;;;;13.63;12.27;;;;;;;6.08;62.10;95138.63;5011543;28;20211;-70
2023/01/14 06:06:23;;;;;;;15.13;13.43;;;;;;;6.14;61.92;95138.13;5015275;28;20376;-69
2023/01/14 06:09:06;;;;;;;14.80;12.40;;;;;;;6.06;62.12;95130.06;5004596;28;20243;-70
2023/01/14 06:11:34;;;;;;;19.63;16.07;;;;;;;5.93;63.34;95132.84;4995013;28;20223;-70
2023/01/14 06:14:01;;;;;;;24.20;18.50;;;;;;;6.11;63.55;95132.31;5002266;28;20223;-70
2023/01/14 06:16:31;;;;;;;22.03;18.67;;;;;;;6.18;63.01;95136.94;4996004;28;20224;-71
2023/01/14 06:18:57;;;;;;;24.53;20.20;;;;;;;6.19;63.52;95129.94;5013190;28;20207;-70
2023/01/14 06:21:31;;;;;;;27.93;22.70;;;;;;;6.23;63.74;95133.97;5022060;28;20193;-69
2023/01/14 06:23:58;;;;;;;27.43;22.17;;;;;;;6.18;63.80;95126.50;5008781;28;20295;-69
2023/01/14 06:26:30;;;;;;;27.77;23.47;;;;;;;6.02;64.62;95128.66;5021460;28;20219;-69
2023/01/14 06:29:00;;;;;;;33.30;23.83;;;;;;;5.92;65.11;95132.91;5012373;28;20255;-69
2023/01/14 06:31:25;;;;;;;32.37;25.00;;;;;;;5.95;64.80;95137.91;5012884;28;20222;-68
2023/01/14 06:33:51;;;;;;;30.40;23.07;;;;;;;6.08;64.69;95133.41;5020064;28;20197;-70
2023/01/14 06:36:17;;;;;;;28.83;25.13;;;;;;;6.18;64.42;95138.72;5014050;28;20296;-69
2023/01/14 06:38:42;;;;;;;30.07;25.80;;;;;;;6.15;64.43;95139.81;5008570;28;20255;-69
2023/01/14 06:41:10;;;;;;;32.73;26.87;;;;;;;6.21;64.08;95137.66;5028791;28;20226;-69
2023/01/14 06:43:36;;;;;;;35.67;28.40;;;;;;;6.14;64.05;95145.13;5010024;28;20361;-69
2023/01/14 06:46:02;;;;;;;34.13;27.97;;;;;;;6.00;64.50;95140.19;5003595;28;20247;-66
2023/01/14 06:48:28;;;;;;;32.63;29.03;;;;;;;5.85;65.08;95143.00;5014909;28;20235;-66
2023/01/14 06:50:54;;;;;;;35.73;29.57;;;;;;;6.04;64.38;95144.19;5009927;28;20348;-66
2023/01/14 06:53:19;;;;;;;33.07;28.20;;;;;;;6.07;64.36;95138.75;5001525;28;20260;-66
2023/01/14 06:55:45;;;;;;;34.77;28.87;;;;;;;5.57;65.87;95151.31;5019436;28;20290;-66
2023/01/14 06:58:11;;;;;;;34.57;29.20;;;;;;;5.80;64.99;95139.94;5006939;28;20186;-66
2023/01/14 07:00:37;;;;;;;37.27;28.40;;;;;;;5.84;65.22;95145.75;5014282;28;20253;-65
2023/01/14 07:03:02;;;;;;;37.57;30.13;;;;;;;5.96;64.75;95156.09;5011605;28;20253;-66
2023/01/14 07:05:28;;;;;;;36.10;28.63;;;;;;;6.10;63.85;95146.34;5011472;28;20317;-65
2023/01/14 07:07:53;;;;;;;32.60;27.30;;;;;;;6.12;63.54;95158.31;5010213;28;20225;-66
2023/01/14 07:10:19;;;;;;;31.37;27.07;;;;;;;6.13;63.62;95154.75;5018065;28;20238;-68
2023/01/14 07:12:46;;;;;;;32.53;24.60;;;;;;;6.18;63.15;95159.63;5020011;28;20203;-68
2023/01/14 07:15:12;;;;;;;32.33;24.30;;;;;;;6.12;63.31;95160.06;5022429;28;20356;-68
2023/01/14 07:17:38;;;;;;;27.63;23.70;;;;;;;6.29;62.31;95164.81;5028391;28;20273;-67
2023/01/14 07:20:05;;;;;;;30.53;21.90;;;;;;;6.18;62.19;95162.22;5011299;28;20321;-67
2023/01/14 07:22:30;;;;;;;26.50;22.13;;;;;;;6.26;62.03;95172.06;5016210;28;20229;-66
2023/01/14 07:24:56;;;;;;;29.20;22.77;;;;;;;6.27;61.80;95168.50;5004183;28;20195;-67
2023/01/14 07:27:21;;;;;;;28.03;22.60;;;;;;;6.08;62.50;95167.34;5010290;28;20245;-66
2023/01/14 07:29:47;;;;;;;26.50;20.83;;;;;;;6.31;61.83;95175.16;5012585;28;20225;-68
2023/01/14 07:32:12;;;;;;;26.87;21.30;;;;;;;6.25;61.77;95183.44;5010901;28;20227;-67
2023/01/14 07:34:37;;;;;;;29.07;24.03;;;;;;;6.09;62.36;95179.41;5003925;28;20227;-69
2023/01/14 07:37:03;;;;;;;25.90;22.23;;;;;;;6.18;62.04;95180.50;5019676;28;20191;-66
2023/01/14 07:39:28;;;;;;;26.37;23.33;;;;;;;6.37;61.37;95185.09;5012502;28;20215;-68
2023/01/14 07:41:55;;;;;;;29.47;24.17;;;;;;;6.43;61.34;95183.78;5004881;28;20220;-68
2023/01/14 07:44:23;;;;;;;27.70;22.13;;;;;;;6.43;61.01;95179.38;4987053;28;20235;-67
2023/01/14 07:46:52;;;;;;;25.47;22.67;;;;;;;6.48;60.97;95185.06;5006610;28;20223;-67
2023/01/14 07:49:17;;;;;;;25.10;21.77;;;;;;;6.50;60.79;95190.19;4982799;28;20235;-67
2023/01/14 07:51:43;;;;;;;26.57;23.27;;;;;;;6.50;60.56;95191.00;5018686;28;20309;-66
2023/01/14 07:54:08;;;;;;;25.97;22.73;;;;;;;6.47;60.73;95186.03;5013535;28;20227;-67
2023/01/14 07:56:34;;;;;;;28.23;24.10;;;;;;;6.47;60.89;95193.00;4994194;28;20298;-67
2023/01/14 07:58:59;;;;;;;31.17;22.43;;;;;;;6.50;60.81;95191.00;5020352;28;20270;-67
2023/01/14 08:01:24;;;;;;;28.93;23.77;;;;;;;6.59;60.41;95195.47;5010450;28;20254;-68
2023/01/14 08:03:50;;;;;;;27.67;23.03;;;;;;;6.56;60.44;95192.28;5012397;28;20207;-66
2023/01/14 08:06:15;;;;;;;30.70;22.10;;;;;;;6.54;60.31;95181.13;5013921;28;20235;-66
2023/01/14 08:08:41;;;;;;;25.60;20.37;;;;;;;6.59;60.29;95179.81;5004624;28;20243;-68
2023/01/14 08:11:06;;;;;;;24.30;20.00;;;;;;;6.65;60.37;95188.94;5001477;28;20227;-69
2023/01/14 08:13:32;;;;;;;19.90;17.33;;;;;;;6.66;60.16;95189.78;5009839;28;20282;-68
2023/01/14 08:16:00;;;;;;;23.63;16.90;;;;;;;6.56;59.79;95193.13;5012145;28;20194;-67
2023/01/14 08:18:25;;;;;;;22.53;17.30;;;;;;;6.58;59.97;95191.22;5002500;28;20253;-66
2023/01/14 08:20:59;;;;;;;20.17;17.97;;;;;;;6.70;60.05;95197.22;5012167;28;20226;-68
2023/01/14 08:23:25;;;;;;;22.07;17.97;;;;;;;6.78;59.88;95204.47;4996990;28;20262;-68
2023/01/14 08:25:50;;;;;;;21.70;15.47;;;;;;;6.78;59.42;95201.84;4984702;28;20267;-68
2023/01/14 08:28:16;;;;;;;17.57;14.70;;;;;;;6.76;59.26;95204.59;4984302;28;20203;-67
2023/01/14 08:30:41;;;;;;;16.47;13.10;;;;;;;6.87;58.84;95198.50;4987498;28;20188;-68
2023/01/14 08:33:08;;;;;;;20.97;13.87;;;;;;;7.00;58.28;95199.16;4985157;28;20220;-68
2023/01/14 08:35:38;;;;;;;15.00;12.60;;;;;;;6.92;57.83;95203.34;5011002;28;20229;-67
2023/01/14 08:38:03;;;;;;;13.20;10.77;;;;;;;6.99;57.82;95207.94;5027341;28;20214;-68
2023/01/14 08:40:30;;;;;;;12.47;10.67;;;;;;;7.02;57.71;95201.63;5010562;28;20266;-67
2023/01/14 08:42:55;;;;;;;15.50;10.53;;;;;;;7.02;57.57;95206.84;5005151;28;20211;-68
2023/01/14 08:45:21;;;;;;;15.00;12.50;;;;;;;7.12;57.19;95210.38;5009087;28;20222;-67
2023/01/14 08:47:46;;;;;;;11.80;10.53;;;;;;;7.26;57.17;95215.31;5008255;28;20222;-68
2023/01/14 08:50:12;;;;;;;15.17;10.97;;;;;;;7.21;56.94;95206.19;5002893;28;20424;-67
2023/01/14 08:52:37;;;;;;;15.77;11.03;;;;;;;7.23;56.86;95212.13;4989522;28;20231;-68
2023/01/14 08:55:03;;;;;;;12.27;9.60;;;;;;;7.22;56.43;95218.31;4993173;28;20290;-67
2023/01/14 08:57:28;;;;;;;11.30;9.70;;;;;;;7.35;56.25;95211.13;4988858;28;20192;-67
2023/01/14 08:59:54;;;;;;;10.57;9.27;;;;;;;7.44;55.91;95214.75;5001978;28;20294;-67
2023/01/14 09:02:19;;;;;;;11.10;9.90;;;;;;;7.42;55.86;95206.19;5012763;28;20224;-67
2023/01/14 09:04:45;;;;;;;13.57;10.33;;;;;;;7.43;55.92;95210.44;5007103;28;20238;-67
2023/01/14 09:18:06;;;;;;;12.27;10.00;;;;;;;7.73;54.78;95186.97;5014375;28;20238;-68
2023/01/14 09:20:36;;;;;;;12.93;10.63;;;;;;;7.61;54.90;95172.28;5013023;28;20232;-68
2023/01/14 09:23:03;;;;;;;8.87;7.97;;;;;;;7.75;54.45;95178.97;5023124;28;20308;-68
2023/01/14 09:25:29;;;;;;;8.20;7.40;;;;;;;7.77;53.82;95177.03;5013996;28;20254;-69
2023/01/14 09:27:54;;;;;;;9.13;8.10;;;;;;;7.92;53.25;95173.13;5014760;28;20218;-68
2023/01/14 09:30:21;;;;;;;8.40;7.57;;;;;;;7.91;53.21;95175.84;5003015;28;20285;-68
2023/01/14 09:32:46;;;;;;;6.87;6.17;;;;;;;8.09;52.78;95169.03;5016766;28;20218;-68
2023/01/14 09:35:12;;;;;;;7.40;6.70;;;;;;;8.29;52.15;95171.75;5015182;28;20242;-69
2023/01/14 09:37:37;;;;;;;7.37;6.43;;;;;;;8.28;51.88;95170.06;5018578;28;20226;-68
2023/01/14 09:40:03;;;;;;;9.10;6.67;;;;;;;8.16;51.93;95164.13;5006508;28;20219;-68
2023/01/14 09:42:38;;;;;;;7.10;6.50;;;;;;;8.47;51.61;95164.91;5007224;28;20209;-68
2023/01/14 09:45:15;;;;;;;7.33;6.20;;;;;;;8.68;51.20;95161.34;5016434;28;20219;-68
2023/01/14 09:47:43;;;;;;;6.80;6.10;;;;;;;8.79;50.61;95161.22;5004671;28;20254;-69
2023/01/14 09:50:20;;;;;;;7.70;6.50;;;;;;;8.93;49.69;95162.63;5021340;28;20218;-67
2023/01/14 09:53:08;;;;;;;10.37;6.67;;;;;;;8.89;49.71;95163.84;5018492;28;20223;-68
2023/01/14 09:55:53;;;;;;;7.47;6.77;;;;;;;9.00;49.88;95164.53;5013429;28;20214;-68
2023/01/14 09:58:25;;;;;;;6.70;5.93;;;;;;;8.90;49.68;95155.00;5019603;28;20238;-67
2023/01/14 10:01:35;;;;;;;7.63;6.30;;;;;;;9.02;49.43;95162.59;5019856;28;20238;-68
2023/01/14 10:04:10;;;;;;;8.27;7.47;;;;;;;9.35;48.90;95157.03;4960575;28;20578;-68
2023/01/14 10:06:38;;;;;;;7.50;6.80;;;;;;;9.32;48.77;95162.56;4971092;28;20211;-68
2023/01/14 10:09:19;;;;;;;7.73;6.90;;;;;;;9.22;48.96;95160.81;4948734;28;20276;-67
2023/01/14 10:11:46;;;;;;;8.33;7.37;;;;;;;9.28;48.72;95154.16;4956629;28;21641;-68
2023/01/14 10:14:18;;;;;;;8.20;7.40;;;;;;;9.31;48.71;95158.31;4971254;28;20229;-67
2023/01/14 10:17:13;;;;;;;8.80;7.87;;;;;;;9.24;48.85;95148.34;4966707;28;20260;-68
2023/01/14 10:19:51;;;;;;;8.83;7.93;;;;;;;9.54;48.18;95138.63;4965893;28;20232;-67
2023/01/14 10:22:39;;;;;;;9.10;8.20;;;;;;;9.36;47.96;95137.72;4956281;28;20214;-67
2023/01/14 10:25:20;;;;;;;9.60;8.60;;;;;;;9.55;48.17;95140.28;4972724;28;20212;-68
2023/01/14 10:27:51;;;;;;;12.80;9.43;;;;;;;9.84;47.85;95134.13;4976447;28;20207;-68
2023/01/14 10:30:19;;;;;;;12.77;11.17;;;;;;;9.42;49.05;95137.16;4969938;28;20302;-68
2023/01/14 10:32:47;;;;;;;14.50;11.90;;;;;;;9.62;48.78;95137.91;4971561;28;20271;-68
2023/01/14 10:35:16;;;;;;;12.50;10.80;;;;;;;9.37;49.44;95137.56;4972211;28;20220;-67
2023/01/14 10:37:42;;;;;;;13.50;11.77;;;;;;;9.22;49.72;95134.56;4953614;28;20304;-68
2023/01/14 10:40:21;;;;;;;13.97;12.50;;;;;;;9.19;49.46;95134.81;4976987;28;20248;-67
2023/01/14 10:42:46;;;;;;;14.33;12.83;;;;;;;8.97;50.22;95137.75;5013470;28;20187;-67
2023/01/14 10:45:12;;;;;;;13.57;11.93;;;;;;;8.71;50.81;95127.00;5013847;28;20231;-68
2023/01/14 10:47:39;;;;;;;14.47;12.90;;;;;;;8.83;50.76;95131.97;5012092;28;20240;-68
2023/01/14 10:50:25;;;;;;;14.17;12.67;;;;;;;8.91;50.73;95133.91;5010002;28;20282;-68
2023/01/14 10:52:52;;;;;;;20.30;14.47;;;;;;;8.77;50.92;95127.28;5013451;28;20250;-69
2023/01/14 10:55:23;;;;;;;16.53;14.77;;;;;;;8.84;50.90;95123.13;5008313;28;20199;-68
2023/01/14 10:58:07;;;;;;;15.77;14.17;;;;;;;9.02;50.26;95127.69;5013775;28;20203;-69
2023/01/14 11:00:46;;;;;;;16.83;14.23;;;;;;;8.97;50.40;95114.97;5008794;28;20373;-68
2023/01/14 11:03:26;;;;;;;19.57;15.23;;;;;;;9.15;50.13;95117.72;5002942;28;20250;-68
2023/01/14 11:05:59;;;;;;;17.77;14.87;;;;;;;9.36;49.45;95106.22;5004384;28;20298;-68
2023/01/14 11:08:38;;;;;;;17.10;15.40;;;;;;;9.39;49.43;95103.31;5008982;28;20230;-68
2023/01/14 11:11:06;;;;;;;17.57;15.03;;;;;;;9.50;48.26;95101.34;5017584;28;20235;-69
2023/01/14 11:13:33;;;;;;;18.70;16.83;;;;;;;9.49;48.63;95102.31;5011306;28;20226;-69
2023/01/14 11:15:59;;;;;;;20.13;16.30;;;;;;;9.21;49.35;95098.78;5005329;28;20238;-65
2023/01/14 11:18:26;;;;;;;18.97;16.83;;;;;;;9.08;49.68;95108.75;5006408;28;20230;-64
2023/01/14 11:21:02;;;;;;;19.73;17.73;;;;;;;9.19;49.17;95107.78;5022227;28;20228;-68
2023/01/14 11:23:37;;;;;;;19.67;17.57;;;;;;;9.38;48.57;95107.75;4996066;28;20351;-69
2023/01/14 11:26:33;;;;;;;20.37;18.20;;;;;;;9.19;48.73;95103.34;5023069;28;20228;-66
2023/01/14 11:29:20;;;;;;;20.53;17.83;;;;;;;9.52;48.44;95103.00;4978227;28;20326;-69
2023/01/14 11:31:47;;;;;;;23.90;19.60;;;;;;;9.53;48.15;95110.72;4976258;28;20236;-68
2023/01/14 11:34:35;;;;;;;24.10;21.50;;;;;;;9.56;48.72;95104.38;4971624;28;20218;-68
2023/01/14 11:37:25;;;;;;;23.57;21.10;;;;;;;9.69;48.35;95105.69;4968579;28;20211;-68
2023/01/14 11:39:55;;;;;;;25.60;22.23;;;;;;;9.53;48.51;95108.09;4979785;28;20220;-69
2023/01/14 11:42:26;;;;;;;27.07;24.23;;;;;;;9.69;48.39;95107.50;4969631;28;20251;-67
2023/01/14 11:45:11;;;;;;;31.20;25.67;;;;;;;9.69;48.35;95097.81;4978529;28;20226;-69
2023/01/14 11:47:48;;;;;;;29.97;25.00;;;;;;;9.64;48.54;95101.84;4985637;28;20226;-69
2023/01/14 11:50:25;;;;;;;25.07;22.37;;;;;;;9.37;49.06;95110.50;4980752;28;20220;-69
2023/01/14 11:53:18;;;;;;;24.40;21.73;;;;;;;9.49;49.31;95112.81;4985204;28;20232;-69
2023/01/14 11:55:47;;;;;;;25.30;22.27;;;;;;;9.51;48.89;95115.28;4975978;28;20218;-70
2023/01/14 11:58:20;;;;;;;25.97;22.97;;;;;;;9.41;49.42;95117.09;4988250;28;20298;-69
2023/01/14 12:00:56;;;;;;;27.43;22.70;;;;;;;9.09;50.35;95117.44;4971493;28;20219;-69
2023/01/14 12:03:37;;;;;;;24.90;22.20;;;;;;;9.20;50.03;95127.81;4970726;28;20226;-69
2023/01/14 12:06:09;;;;;;;23.50;20.17;;;;;;;9.01;50.46;95120.78;5003783;28;20234;-69
2023/01/14 12:08:35;;;;;;;24.07;20.40;;;;;;;9.16;50.06;95118.53;5005049;28;20365;-68
2023/01/14 12:11:03;;;;;;;21.13;18.90;;;;;;;9.09;50.55;95120.91;5015733;28;20223;-69
2023/01/14 12:16:52;;;;;;;18.40;14.77;;;;;;;8.92;50.91;95111.94;5006584;28;20276;-69
2023/01/14 12:19:18;;;;;;;16.30;14.43;;;;;;;8.99;50.75;95109.59;5024239;28;20205;-69